Time;durP1;ratioP1;P1;durP2;ratioP2;P2;SDS_P1;SDS_P2;PMS_P1;PMS_P2;Temp;Humidity;BMP_temperature;BMP_pressure;BME280_temperature;BME280_humidity;BME280_pressure;Samples;Min_cycle;Max_cycle;Signal;HPM_P1;HPM_P2
2023/12/10 00:00:06;;;;;;;18.13;4.00;;;9.30;99.90;;;;;;5012160;28;21030;-29
2023/12/10 00:02:35;;;;;;;17.47;4.30;;;9.30;99.90;;;;;;5033397;28;20955;-29
2023/12/10 00:05:01;;;;;;;16.80;4.20;;;9.30;99.90;;;;;;5000110;28;20590;-29
2023/12/10 00:07:29;;;;;;;16.30;4.57;;;9.30;99.90;;;;;;5024984;28;20451;-28
2023/12/10 00:09:57;;;;;;;19.70;5.30;;;9.30;99.90;;;;;;5009163;28;20453;-30
2023/12/10 00:12:23;;;;;;;18.37;5.37;;;9.30;99.90;;;;;;5008670;28;20474;-27
2023/12/10 00:14:54;;;;;;;16.03;4.20;;;9.30;99.90;;;;;;5020338;28;20811;-28
2023/12/10 00:17:22;;;;;;;21.97;4.63;;;9.30;99.90;;;;;;5017275;28;20431;-27
2023/12/10 00:19:50;;;;;;;30.57;5.17;;;9.30;99.90;;;;;;5026635;28;20419;-29
2023/12/10 00:22:16;;;;;;;19.87;5.17;;;9.30;99.90;;;;;;5014943;28;20427;-28
2023/12/10 00:24:44;;;;;;;18.30;4.37;;;9.30;99.90;;;;;;5019405;28;20474;-28
2023/12/10 00:27:11;;;;;;;18.43;4.73;;;9.30;99.90;;;;;;5030737;28;21015;-29
2023/12/10 00:29:37;;;;;;;17.90;4.70;;;9.30;99.90;;;;;;5002917;28;20473;-30
2023/12/10 00:32:03;;;;;;;14.70;5.20;;;9.30;99.90;;;;;;5038171;28;20474;-29
2023/12/10 00:34:29;;;;;;;17.47;4.87;;;9.30;99.90;;;;;;5020595;28;20447;-27
2023/12/10 00:37:00;;;;;;;12.67;4.20;;;9.30;99.90;;;;;;5012024;28;20480;-27
2023/12/10 00:39:28;;;;;;;16.43;4.60;;;9.30;99.90;;;;;;5013510;28;20524;-29
2023/12/10 00:41:57;;;;;;;17.47;5.07;;;9.30;99.90;;;;;;5018310;28;20419;-29
2023/12/10 00:44:23;;;;;;;14.23;4.90;;;9.40;99.90;;;;;;5003770;28;20448;-29
2023/12/10 00:46:52;;;;;;;15.47;4.77;;;9.30;99.90;;;;;;5020284;28;20525;-28
2023/12/10 00:49:18;;;;;;;20.97;6.00;;;9.30;99.90;;;;;;5027418;28;20451;-28
2023/12/10 00:51:47;;;;;;;21.57;5.03;;;9.30;99.90;;;;;;5026459;28;21304;-27
2023/12/10 00:54:13;;;;;;;11.00;4.37;;;9.40;99.90;;;;;;5021359;28;20449;-27
2023/12/10 00:56:41;;;;;;;15.10;4.57;;;9.40;99.90;;;;;;5025224;28;20416;-28
2023/12/10 00:59:08;;;;;;;14.60;5.17;;;9.30;99.90;;;;;;5037461;28;20570;-29
2023/12/10 01:01:37;;;;;;;21.20;5.40;;;9.40;99.90;;;;;;5011565;28;20435;-29
2023/12/10 01:04:03;;;;;;;20.87;5.30;;;9.40;99.90;;;;;;5032174;28;21441;-27
2023/12/10 01:06:31;;;;;;;12.83;4.30;;;9.40;99.90;;;;;;5036067;28;20915;-29
2023/12/10 01:09:02;;;;;;;19.27;4.67;;;9.40;99.90;;;;;;5007846;28;20467;-27
2023/12/10 01:11:28;;;;;;;24.80;6.13;;;9.40;99.90;;;;;;5006560;28;20487;-28
2023/12/10 01:14:02;;;;;;;16.70;5.40;;;9.40;99.90;;;;;;5007422;28;20984;-28
2023/12/10 01:16:28;;;;;;;21.37;6.43;;;9.40;99.90;;;;;;5026959;28;20570;-27
2023/12/10 01:18:54;;;;;;;18.33;4.70;;;9.40;99.90;;;;;;5022449;28;21118;-26
2023/12/10 01:21:25;;;;;;;11.93;4.27;;;9.40;99.90;;;;;;5016398;28;20958;-28
2023/12/10 01:23:56;;;;;;;16.30;5.60;;;9.40;99.90;;;;;;5022940;28;20533;-28
2023/12/10 01:26:22;;;;;;;17.10;4.50;;;9.40;99.90;;;;;;5014865;28;20455;-28
2023/12/10 01:28:51;;;;;;;17.53;4.80;;;9.40;99.90;;;;;;5007709;28;20514;-30
2023/12/10 01:31:22;;;;;;;20.00;4.80;;;9.40;99.90;;;;;;5014113;28;21007;-28
2023/12/10 01:33:48;;;;;;;13.33;4.47;;;9.40;99.90;;;;;;5014250;28;20427;-28
2023/12/10 01:36:26;;;;;;;24.90;5.47;;;9.40;99.90;;;;;;5021139;28;20510;-28
2023/12/10 01:38:52;;;;;;;12.40;5.23;;;9.40;99.90;;;;;;5021692;28;20430;-29
2023/12/10 01:41:20;;;;;;;17.60;5.00;;;9.40;99.90;;;;;;5011697;28;21020;-30
2023/12/10 01:43:46;;;;;;;23.23;5.23;;;9.40;99.90;;;;;;5026119;28;20527;-29
2023/12/10 01:46:14;;;;;;;17.10;4.53;;;9.40;99.90;;;;;;5033314;28;20442;-28
2023/12/10 01:48:41;;;;;;;18.30;4.30;;;9.40;99.90;;;;;;5026906;28;21016;-29
2023/12/10 01:51:14;;;;;;;14.50;4.00;;;9.40;99.90;;;;;;5025997;28;20479;-28
2023/12/10 01:53:40;;;;;;;11.93;4.60;;;9.40;99.90;;;;;;5026370;28;21050;-28
2023/12/10 01:56:11;;;;;;;13.10;4.50;;;9.40;99.90;;;;;;5043980;28;20426;-28
2023/12/10 01:58:41;;;;;;;21.60;4.53;;;9.40;99.90;;;;;;5034957;28;21002;-28
2023/12/10 02:01:07;;;;;;;23.13;4.40;;;9.40;99.90;;;;;;5015930;28;20428;-29
2023/12/10 02:03:36;;;;;;;17.40;6.00;;;9.40;99.90;;;;;;4997678;28;20800;-27
2023/12/10 02:06:02;;;;;;;12.70;3.80;;;9.40;99.90;;;;;;5009607;28;20550;-26
2023/12/10 02:08:31;;;;;;;15.87;4.70;;;9.40;99.90;;;;;;5028184;28;20424;-29
2023/12/10 02:10:59;;;;;;;20.03;4.73;;;9.40;99.90;;;;;;5030343;28;21235;-28
2023/12/10 02:13:26;;;;;;;19.67;4.23;;;9.40;99.90;;;;;;5015352;28;20818;-29
2023/12/10 02:15:56;;;;;;;16.37;4.50;;;9.40;99.90;;;;;;5024102;28;20439;-29
2023/12/10 02:18:22;;;;;;;17.63;4.70;;;9.40;99.90;;;;;;5023803;28;21106;-27
2023/12/10 02:20:54;;;;;;;16.93;4.97;;;9.40;99.90;;;;;;5037891;28;20438;-28
2023/12/10 02:24:05;;;;;;;20.00;4.10;;;9.40;99.90;;;;;;5011521;28;20471;-29
2023/12/10 02:26:41;;;;;;;15.27;4.37;;;9.40;99.90;;;;;;4989798;28;21212;-28
2023/12/10 02:29:07;;;;;;;11.20;4.03;;;9.40;99.90;;;;;;5020710;28;20451;-29
2023/12/10 02:31:38;;;;;;;18.57;4.00;;;9.40;99.90;;;;;;5025922;28;20466;-28
2023/12/10 02:34:04;;;;;;;16.73;4.73;;;9.40;99.90;;;;;;5024458;28;20440;-29
2023/12/10 02:36:30;;;;;;;13.30;4.50;;;9.40;99.90;;;;;;5027256;28;20463;-27
2023/12/10 02:38:56;;;;;;;19.47;4.10;;;9.40;99.90;;;;;;5035865;28;21254;-28
2023/12/10 02:41:24;;;;;;;13.10;4.40;;;9.40;99.90;;;;;;5021379;28;20550;-29
2023/12/10 02:43:52;;;;;;;15.57;3.50;;;9.40;99.90;;;;;;4994853;28;20439;-29
2023/12/10 02:46:19;;;;;;;13.93;5.03;;;9.50;99.90;;;;;;5012146;28;20448;-29
2023/12/10 02:48:47;;;;;;;16.17;4.13;;;9.50;99.90;;;;;;5020718;28;21452;-28
2023/12/10 02:51:15;;;;;;;14.57;4.50;;;9.50;99.90;;;;;;5027719;28;20478;-27
2023/12/10 02:53:43;;;;;;;16.10;4.73;;;9.50;99.90;;;;;;5034514;28;20577;-26
2023/12/10 02:56:12;;;;;;;20.00;4.60;;;9.40;99.90;;;;;;5035279;28;20965;-26
2023/12/10 02:58:42;;;;;;;15.03;4.50;;;9.40;99.90;;;;;;5021121;28;20454;-27
2023/12/10 03:01:14;;;;;;;16.00;3.73;;;9.50;99.90;;;;;;5014891;28;20544;-28
2023/12/10 03:03:43;;;;;;;15.80;4.10;;;9.50;99.90;;;;;;5032609;28;20491;-27
2023/12/10 03:06:11;;;;;;;11.70;3.80;;;9.40;99.90;;;;;;5004191;28;20432;-29
2023/12/10 03:08:37;;;;;;;10.40;3.40;;;9.50;99.90;;;;;;5033086;28;20437;-27
2023/12/10 03:11:09;;;;;;;12.83;4.00;;;9.40;99.90;;;;;;5004910;28;20484;-28
2023/12/10 03:13:37;;;;;;;14.10;4.67;;;9.50;99.90;;;;;;5008734;28;20518;-29
2023/12/10 03:16:06;;;;;;;9.43;3.63;;;9.50;99.90;;;;;;5022595;28;20819;-27
2023/12/10 03:18:34;;;;;;;18.20;4.40;;;9.50;99.90;;;;;;5031584;28;20893;-26
2023/12/10 03:21:00;;;;;;;13.33;4.57;;;9.50;99.90;;;;;;5029563;28;20438;-28
2023/12/10 03:23:26;;;;;;;16.83;3.97;;;9.50;99.90;;;;;;5010145;28;20423;-28
2023/12/10 03:25:52;;;;;;;11.17;4.07;;;9.50;99.90;;;;;;4989743;28;20480;-29
2023/12/10 03:28:21;;;;;;;11.27;2.97;;;9.50;99.90;;;;;;5000846;28;20459;-29
2023/12/10 03:30:54;;;;;;;14.97;3.60;;;9.50;99.90;;;;;;5022570;28;20854;-28
2023/12/10 03:33:23;;;;;;;10.40;3.70;;;9.50;99.90;;;;;;5008977;28;21044;-29
2023/12/10 03:35:49;;;;;;;22.83;4.17;;;9.50;99.90;;;;;;5023725;28;20477;-28
2023/12/10 03:38:15;;;;;;;14.73;3.90;;;9.50;99.90;;;;;;5027945;28;20424;-29
2023/12/10 03:40:41;;;;;;;12.70;3.73;;;9.50;99.90;;;;;;4992561;28;20452;-28
2023/12/10 03:43:12;;;;;;;12.73;3.23;;;9.50;99.90;;;;;;5020430;28;20451;-27
2023/12/10 03:45:38;;;;;;;13.60;4.00;;;9.50;99.90;;;;;;5020384;28;20443;-26
2023/12/10 03:48:07;;;;;;;12.50;3.70;;;9.50;99.90;;;;;;5021859;28;21205;-28
2023/12/10 03:50:33;;;;;;;12.17;3.80;;;9.50;99.90;;;;;;5032646;28;20534;-28
2023/12/10 03:53:01;;;;;;;12.30;3.23;;;9.50;99.90;;;;;;5026780;28;20575;-26
2023/12/10 03:55:27;;;;;;;13.90;4.80;;;9.50;99.90;;;;;;5016094;28;20989;-28
2023/12/10 03:57:54;;;;;;;14.67;3.63;;;9.50;99.90;;;;;;5028500;28;20423;-29
2023/12/10 04:00:20;;;;;;;11.87;3.80;;;9.50;99.90;;;;;;4997523;28;20512;-27
2023/12/10 04:02:46;;;;;;;15.27;3.30;;;9.50;99.90;;;;;;5010004;28;20476;-29
2023/12/10 04:05:16;;;;;;;18.50;3.83;;;9.50;99.90;;;;;;5003696;28;20502;-27
2023/12/10 04:07:48;;;;;;;14.63;3.87;;;9.50;99.90;;;;;;5023357;28;20473;-29
2023/12/10 04:10:14;;;;;;;11.30;3.70;;;9.50;99.90;;;;;;5010423;28;20436;-28
2023/12/10 04:12:45;;;;;;;14.80;3.47;;;9.50;99.90;;;;;;5002018;28;20471;-26
2023/12/10 04:15:14;;;;;;;15.17;3.80;;;9.50;99.90;;;;;;5035571;28;20467;-29
2023/12/10 04:17:40;;;;;;;12.70;3.53;;;9.50;99.90;;;;;;5013851;28;20833;-27
2023/12/10 04:20:08;;;;;;;12.03;4.03;;;9.50;99.90;;;;;;5017890;28;20433;-28
2023/12/10 04:22:34;;;;;;;10.50;3.43;;;9.50;99.90;;;;;;5008168;28;21277;-30
2023/12/10 04:25:00;;;;;;;9.23;3.17;;;9.40;99.90;;;;;;5010886;28;20467;-27
2023/12/10 04:27:26;;;;;;;12.67;3.47;;;9.50;99.90;;;;;;5032117;28;21052;-28
2023/12/10 04:29:52;;;;;;;13.27;4.20;;;9.40;99.90;;;;;;5010195;28;20466;-26
2023/12/10 04:32:19;;;;;;;13.60;4.23;;;9.40;99.90;;;;;;5012279;28;20529;-28
2023/12/10 04:34:46;;;;;;;11.33;3.20;;;9.40;99.90;;;;;;5020021;28;20454;-28
2023/12/10 04:37:12;;;;;;;11.80;4.47;;;9.40;99.90;;;;;;5012813;28;20526;-27
2023/12/10 04:39:38;;;;;;;20.23;4.67;;;9.40;99.90;;;;;;5006450;28;21248;-28
2023/12/10 04:42:06;;;;;;;18.53;4.17;;;9.40;99.90;;;;;;5030394;28;20435;-26
2023/12/10 04:44:34;;;;;;;9.70;3.50;;;9.40;99.90;;;;;;5024144;28;20505;-27
2023/12/10 04:47:03;;;;;;;9.90;3.63;;;9.40;99.90;;;;;;5005526;28;20436;-27
2023/12/10 04:49:29;;;;;;;18.53;4.30;;;9.40;99.90;;;;;;5031386;28;21164;-29
2023/12/10 04:51:56;;;;;;;8.87;3.70;;;9.40;99.90;;;;;;5032247;28;21308;-30
2023/12/10 04:54:26;;;;;;;17.53;4.70;;;9.40;99.90;;;;;;5024317;28;20448;-30
2023/12/10 04:56:52;;;;;;;10.73;3.57;;;9.40;99.90;;;;;;5037809;28;20525;-26
2023/12/10 04:59:18;;;;;;;17.87;4.00;;;9.40;99.90;;;;;;4979615;28;21009;-28
2023/12/10 05:01:44;;;;;;;12.67;4.03;;;9.40;99.90;;;;;;5037333;28;20434;-27
2023/12/10 05:04:10;;;;;;;16.57;4.77;;;9.40;99.90;;;;;;5024238;28;20456;-27
2023/12/10 05:06:36;;;;;;;12.13;3.80;;;9.40;99.90;;;;;;5029377;28;20434;-25
2023/12/10 05:09:03;;;;;;;12.17;4.13;;;9.40;99.90;;;;;;5033256;28;20813;-28
2023/12/10 05:11:32;;;;;;;19.70;4.60;;;9.40;99.90;;;;;;5022402;28;20470;-27
2023/12/10 05:14:00;;;;;;;12.97;3.77;;;9.40;99.90;;;;;;5030576;28;20890;-26
2023/12/10 05:16:28;;;;;;;12.73;4.57;;;9.40;99.90;;;;;;5011723;28;20527;-26
2023/12/10 05:18:54;;;;;;;17.20;3.83;;;9.40;99.90;;;;;;5030265;28;20435;-28
2023/12/10 05:21:23;;;;;;;16.70;3.80;;;9.40;99.90;;;;;;5015977;28;20493;-28
2023/12/10 05:23:49;;;;;;;13.97;3.93;;;9.40;99.90;;;;;;5022713;28;20483;-29
2023/12/10 05:26:19;;;;;;;9.80;3.47;;;9.40;99.90;;;;;;5024581;28;20955;-26
2023/12/10 05:28:48;;;;;;;13.77;4.10;;;9.40;99.90;;;;;;5017198;28;20512;-29
2023/12/10 05:31:18;;;;;;;11.50;3.90;;;9.40;99.90;;;;;;5007687;28;20593;-28
2023/12/10 05:33:44;;;;;;;10.60;3.40;;;9.40;99.90;;;;;;5032642;28;21237;-28
2023/12/10 05:36:11;;;;;;;12.67;3.60;;;9.40;99.90;;;;;;5015220;28;20432;-28
2023/12/10 05:38:39;;;;;;;15.80;4.03;;;9.40;99.90;;;;;;5033782;28;20872;-27
2023/12/10 05:41:08;;;;;;;16.10;3.80;;;9.40;99.90;;;;;;5030875;28;20422;-27
2023/12/10 05:43:34;;;;;;;13.77;3.83;;;9.40;99.90;;;;;;5022019;28;20598;-28
2023/12/10 05:46:00;;;;;;;14.53;3.70;;;9.40;99.90;;;;;;5004007;28;20439;-26
2023/12/10 05:48:33;;;;;;;12.43;3.30;;;9.50;99.90;;;;;;5030028;28;20935;-28
2023/12/10 05:51:01;;;;;;;11.30;3.70;;;9.50;99.90;;;;;;5021052;28;20432;-27
2023/12/10 05:53:29;;;;;;;14.80;3.10;;;9.50;99.90;;;;;;5017933;28;20419;-26
2023/12/10 05:55:56;;;;;;;13.00;4.17;;;9.50;99.90;;;;;;5011933;28;20447;-27
2023/12/10 05:58:24;;;;;;;12.40;3.33;;;9.50;99.90;;;;;;5016792;28;20424;-30
2023/12/10 06:00:52;;;;;;;14.27;4.70;;;9.50;99.90;;;;;;4988095;28;21073;-27
2023/12/10 06:03:18;;;;;;;11.63;3.20;;;9.50;99.90;;;;;;5038126;28;20973;-27
2023/12/10 06:05:44;;;;;;;11.10;4.27;;;9.50;99.90;;;;;;5039639;28;20439;-27
2023/12/10 06:08:13;;;;;;;16.13;4.10;;;9.50;99.90;;;;;;5039865;28;20435;-27
2023/12/10 06:10:39;;;;;;;9.40;3.10;;;9.50;99.90;;;;;;5027836;28;20518;-29
2023/12/10 06:13:07;;;;;;;12.30;4.20;;;9.50;99.90;;;;;;5018901;28;20555;-28
2023/12/10 06:15:33;;;;;;;11.50;3.60;;;9.50;99.90;;;;;;5027541;28;20558;-26
2023/12/10 06:18:04;;;;;;;10.77;3.60;;;9.50;99.90;;;;;;5030539;28;20459;-28
2023/12/10 06:20:31;;;;;;;11.33;3.83;;;9.50;99.90;;;;;;4999765;28;20441;-26
2023/12/10 06:22:57;;;;;;;12.23;3.70;;;9.50;99.90;;;;;;5024230;28;20943;-30
2023/12/10 06:25:28;;;;;;;14.80;3.73;;;9.50;99.90;;;;;;5021550;28;20457;-28
2023/12/10 06:27:56;;;;;;;9.03;3.10;;;9.50;99.90;;;;;;5031233;28;20898;-26
2023/12/10 06:30:23;;;;;;;18.93;4.10;;;9.50;99.90;;;;;;4995717;28;20450;-28
2023/12/10 06:32:49;;;;;;;6.97;3.50;;;9.50;99.90;;;;;;5011863;28;20984;-27
2023/12/10 06:35:15;;;;;;;12.10;3.57;;;9.50;99.90;;;;;;4996192;28;21015;-27
2023/12/10 06:37:44;;;;;;;8.43;3.53;;;9.50;99.90;;;;;;5029559;28;20415;-28
2023/12/10 06:40:12;;;;;;;10.10;3.50;;;9.50;99.90;;;;;;5022041;28;20514;-27
2023/12/10 06:42:41;;;;;;;10.27;3.00;;;9.50;99.90;;;;;;5014873;28;20463;-28
2023/12/10 06:45:08;;;;;;;12.33;4.17;;;9.50;99.90;;;;;;5025105;28;20467;-29
2023/12/10 06:47:36;;;;;;;12.30;3.90;;;9.60;99.90;;;;;;5018837;28;20540;-28
2023/12/10 06:50:05;;;;;;;8.53;3.33;;;9.60;99.90;;;;;;5031793;28;20431;-28
2023/12/10 06:52:31;;;;;;;14.17;3.10;;;9.60;99.90;;;;;;4994461;28;20517;-28
2023/12/10 06:54:57;;;;;;;10.03;3.77;;;9.60;99.90;;;;;;5036252;28;20447;-28
2023/12/10 06:57:23;;;;;;;13.23;4.27;;;9.60;99.90;;;;;;5011268;28;20439;-28
2023/12/10 06:59:49;;;;;;;22.07;4.70;;;9.60;99.90;;;;;;5027560;28;20598;-27
2023/12/10 07:02:18;;;;;;;9.30;3.30;;;9.60;99.90;;;;;;4993325;28;21048;-27
2023/12/10 07:04:44;;;;;;;10.53;4.27;;;9.60;99.90;;;;;;5035559;28;20435;-29
2023/12/10 07:07:12;;;;;;;12.80;3.50;;;9.60;99.90;;;;;;5021981;28;20427;-28
2023/12/10 07:09:38;;;;;;;11.40;3.40;;;9.60;99.90;;;;;;4996963;28;20822;-26
2023/12/10 07:12:04;;;;;;;9.53;3.63;;;9.60;99.90;;;;;;4994778;28;20516;-26
2023/12/10 07:14:33;;;;;;;13.63;3.90;;;9.60;99.90;;;;;;5008175;28;20456;-28
2023/12/10 07:16:59;;;;;;;10.90;3.63;;;9.60;99.90;;;;;;5036206;28;20500;-28
2023/12/10 07:19:27;;;;;;;17.00;4.17;;;9.60;99.90;;;;;;5013838;28;20529;-28
2023/12/10 07:21:56;;;;;;;17.37;4.70;;;9.60;99.90;;;;;;5207994;23;20823;-84
2023/12/10 07:24:22;;;;;;;8.60;3.23;;;9.60;99.90;;;;;;5003891;28;20470;-84
2023/12/10 07:26:48;;;;;;;7.67;3.60;;;9.60;99.90;;;;;;5019169;28;21252;-82
2023/12/10 07:29:14;;;;;;;9.30;3.53;;;9.60;99.90;;;;;;5040014;28;20437;-83
2023/12/10 07:31:40;;;;;;;9.43;4.27;;;9.60;99.90;;;;;;5041496;28;20531;-84
2023/12/10 07:34:06;;;;;;;16.27;3.70;;;9.60;99.90;;;;;;5015723;28;20418;-84
2023/12/10 07:36:32;;;;;;;10.67;3.60;;;9.60;99.90;;;;;;5037582;28;20438;-84
2023/12/10 07:38:58;;;;;;;14.80;3.53;;;9.60;99.90;;;;;;5047870;28;20507;-84
2023/12/10 07:41:24;;;;;;;13.27;3.53;;;9.60;99.90;;;;;;5022254;28;20535;-83
2023/12/10 07:43:49;;;;;;;13.53;3.30;;;9.60;99.90;;;;;;5047898;28;20435;-83
2023/12/10 07:46:15;;;;;;;11.73;3.13;;;9.60;99.90;;;;;;5021223;28;20454;-85
2023/12/10 07:48:41;;;;;;;8.33;3.30;;;9.60;99.90;;;;;;5014888;28;20904;-84
2023/12/10 07:51:07;;;;;;;10.30;3.73;;;9.60;99.90;;;;;;5042808;28;20508;-83
2023/12/10 07:53:33;;;;;;;9.90;3.80;;;9.60;99.90;;;;;;5047072;28;20435;-84
2023/12/10 07:55:59;;;;;;;17.63;4.23;;;9.60;99.90;;;;;;4998017;28;20455;-84
2023/12/10 07:58:25;;;;;;;16.37;4.23;;;9.60;99.90;;;;;;5056626;28;20446;-82
2023/12/10 08:00:51;;;;;;;12.63;3.83;;;9.60;99.90;;;;;;5000663;28;20935;-83
2023/12/10 08:03:17;;;;;;;12.17;4.67;;;9.60;99.90;;;;;;5031946;28;20544;-85
2023/12/10 08:05:43;;;;;;;9.80;4.13;;;9.60;99.90;;;;;;5059634;28;20464;-84
2023/12/10 08:08:09;;;;;;;7.83;2.93;;;9.60;99.90;;;;;;5067441;28;20494;-80
2023/12/10 08:10:36;;;;;;;12.07;3.70;;;9.60;99.90;;;;;;5043549;28;20449;-82
2023/12/10 08:13:02;;;;;;;13.93;4.20;;;9.60;99.90;;;;;;5018809;28;20478;-84
2023/12/10 08:15:28;;;;;;;15.97;5.00;;;9.60;99.90;;;;;;5051444;28;20422;-84
2023/12/10 08:17:54;;;;;;;9.43;3.43;;;9.60;99.90;;;;;;5072325;28;20441;-82
2023/12/10 08:20:20;;;;;;;10.77;4.10;;;9.60;99.90;;;;;;5056586;28;20455;-84
2023/12/10 08:22:48;;;;;;;12.40;3.97;;;9.60;99.90;;;;;;5060588;28;20484;-84
2023/12/10 08:25:16;;;;;;;14.23;5.17;;;9.60;99.90;;;;;;5039593;28;20474;-83
2023/12/10 08:27:42;;;;;;;10.20;3.30;;;9.60;99.90;;;;;;5050223;28;20503;-84
2023/12/10 08:30:09;;;;;;;20.43;4.20;;;9.60;99.90;;;;;;5057674;28;20442;-82
2023/12/10 08:32:35;;;;;;;9.03;3.20;;;9.60;99.90;;;;;;5022137;28;20801;-83
2023/12/10 08:35:01;;;;;;;12.47;3.80;;;9.60;99.90;;;;;;5042858;28;20429;-84
2023/12/10 08:37:29;;;;;;;13.00;4.80;;;9.60;99.90;;;;;;5049938;28;20435;-83
2023/12/10 08:39:55;;;;;;;11.03;3.37;;;9.60;99.90;;;;;;5043289;28;20864;-84
2023/12/10 08:42:25;;;;;;;10.33;3.93;;;9.60;99.90;;;;;;5041581;28;20443;-83
2023/12/10 08:44:53;;;;;;;8.73;4.23;;;9.60;99.90;;;;;;5047750;28;20428;-85
2023/12/10 08:47:19;;;;;;;9.73;4.10;;;9.60;99.90;;;;;;5040303;28;20859;-84
2023/12/10 08:49:44;;;;;;;11.93;3.80;;;9.60;99.90;;;;;;5040370;28;20449;-83
2023/12/10 08:52:11;;;;;;;14.40;4.13;;;9.60;99.90;;;;;;5050637;28;21028;-83
2023/12/10 08:54:36;;;;;;;11.17;4.20;;;9.60;99.90;;;;;;5055664;28;20426;-83
2023/12/10 08:57:03;;;;;;;11.27;4.03;;;9.60;99.90;;;;;;5037943;28;20454;-83
2023/12/10 08:59:28;;;;;;;12.87;3.97;;;9.60;99.90;;;;;;5048071;28;20446;-85
2023/12/10 09:01:59;;;;;;;15.40;4.23;;;9.60;99.90;;;;;;5073264;28;21203;-84
2023/12/10 09:04:25;;;;;;;9.93;3.13;;;9.60;99.90;;;;;;5058527;28;20447;-83
2023/12/10 09:06:51;;;;;;;10.13;3.70;;;9.60;99.90;;;;;;5028797;28;20927;-82
2023/12/10 09:09:20;;;;;;;9.53;3.93;;;9.60;99.90;;;;;;5024454;28;20454;-84
2023/12/10 09:11:48;;;;;;;7.10;3.23;;;9.60;99.90;;;;;;5057347;28;20470;-84
2023/12/10 09:14:18;;;;;;;11.77;4.40;;;9.60;99.90;;;;;;5026436;28;20492;-82
2023/12/10 09:16:47;;;;;;;8.43;3.47;;;9.60;99.90;;;;;;5036473;28;20906;-84
2023/12/10 09:19:17;;;;;;;7.10;3.70;;;9.60;99.90;;;;;;5035584;28;20431;-84
2023/12/10 09:21:45;;;;;;;8.33;3.03;;;9.60;99.90;;;;;;5042156;28;20458;-84
2023/12/10 09:24:11;;;;;;;15.77;4.13;;;9.60;99.90;;;;;;5033878;28;20441;-84
2023/12/10 09:26:40;;;;;;;10.97;3.60;;;9.60;99.90;;;;;;5017589;28;20447;-83
2023/12/10 09:29:09;;;;;;;11.90;3.30;;;9.60;99.90;;;;;;5050621;28;20431;-84
2023/12/10 09:31:35;;;;;;;10.07;3.73;;;9.60;99.90;;;;;;5025049;28;20504;-83
2023/12/10 09:34:01;;;;;;;12.23;3.20;;;9.60;99.90;;;;;;5050126;28;20450;-83
2023/12/10 09:36:27;;;;;;;16.23;3.77;;;9.60;99.90;;;;;;5052671;28;20962;-83
2023/12/10 09:38:53;;;;;;;12.83;4.03;;;9.60;99.90;;;;;;5052890;28;20415;-81
2023/12/10 09:41:19;;;;;;;16.33;3.90;;;9.60;99.90;;;;;;5033656;28;20466;-84
2023/12/10 09:44:35;;;;;;;12.77;4.30;;;9.60;99.90;;;;;;5056732;28;20510;-82
2023/12/10 09:47:27;;;;;;;12.87;3.30;;;9.70;99.90;;;;;;5055085;28;20969;-84
2023/12/10 09:49:55;;;;;;;14.93;4.00;;;9.60;99.90;;;;;;5041831;28;20435;-83
2023/12/10 09:53:22;;;;;;;10.80;4.20;;;9.60;99.90;;;;;;5050355;28;20485;-84
2023/12/10 09:55:48;;;;;;;12.87;3.93;;;9.60;99.90;;;;;;5049777;28;20453;-85
2023/12/10 09:58:17;;;;;;;14.60;3.20;;;9.60;99.90;;;;;;5051310;28;20427;-83
2023/12/10 10:00:43;;;;;;;13.60;3.60;;;9.60;99.90;;;;;;5044080;28;20821;-84
2023/12/10 10:03:11;;;;;;;22.83;3.90;;;9.60;99.90;;;;;;5060273;28;20430;-80
2023/12/10 10:05:39;;;;;;;12.90;4.27;;;9.60;99.90;;;;;;5056559;28;20510;-83
2023/12/10 10:08:07;;;;;;;11.00;4.17;;;9.60;99.90;;;;;;5053869;28;20471;-83
2023/12/10 10:10:35;;;;;;;14.70;4.00;;;9.60;99.90;;;;;;5028396;28;20548;-84
2023/12/10 10:13:31;;;;;;;11.60;3.67;;;9.60;99.90;;;;;;5008794;28;20439;-83
2023/12/10 10:16:22;;;;;;;7.03;3.37;;;9.60;99.90;;;;;;5049876;28;21037;-83
2023/12/10 10:19:11;;;;;;;9.40;3.50;;;9.60;99.90;;;;;;5044093;28;20466;-83
2023/12/10 10:21:43;;;;;;;15.77;4.07;;;9.60;99.90;;;;;;5022023;28;20486;-84
2023/12/10 10:24:09;;;;;;;9.30;3.47;;;9.60;99.90;;;;;;5060638;28;20438;-83
2023/12/10 10:26:37;;;;;;;13.57;3.40;;;9.60;99.90;;;;;;5056738;28;20815;-83
2023/12/10 10:29:07;;;;;;;10.20;4.03;;;9.60;99.90;;;;;;5051153;28;20558;-83
2023/12/10 10:31:34;;;;;;;11.73;4.33;;;9.60;99.90;;;;;;5050565;28;20611;-83
2023/12/10 10:34:06;;;;;;;16.63;3.57;;;9.70;99.90;;;;;;5041861;28;20419;-82
2023/12/10 10:36:35;;;;;;;9.70;3.37;;;9.60;99.90;;;;;;5063461;28;20441;-82
2023/12/10 10:39:01;;;;;;;12.50;3.67;;;9.60;99.90;;;;;;5009740;28;20442;-82
2023/12/10 10:41:31;;;;;;;11.33;3.67;;;9.70;99.90;;;;;;5029651;28;20535;-83
2023/12/10 10:43:58;;;;;;;12.87;4.00;;;9.70;99.90;;;;;;5052658;28;20431;-81
2023/12/10 10:46:27;;;;;;;14.50;3.87;;;9.70;99.90;;;;;;5057847;28;20533;-83
2023/12/10 10:49:14;;;;;;;12.60;3.80;;;9.70;99.90;;;;;;5078290;28;20426;-82
2023/12/10 10:51:51;;;;;;;14.37;3.93;;;9.70;99.90;;;;;;5022544;28;20477;-84
2023/12/10 10:54:18;;;;;;;8.90;4.17;;;9.70;99.90;;;;;;5051827;28;20451;-82
2023/12/10 10:56:45;;;;;;;12.87;3.90;;;9.70;99.90;;;;;;5039404;28;20771;-83
2023/12/10 10:59:30;;;;;;;16.30;4.37;;;9.70;99.90;;;;;;5042380;28;20473;-81
2023/12/10 11:02:12;;;;;;;12.83;3.30;;;9.70;99.90;;;;;;5032390;28;20469;-82
2023/12/10 11:04:41;;;;;;;9.30;3.97;;;9.70;99.90;;;;;;5043734;28;20432;-82
2023/12/10 11:07:07;;;;;;;9.17;3.70;;;9.70;99.90;;;;;;5054281;28;20423;-81
2023/12/10 11:09:56;;;;;;;17.33;4.00;;;9.70;99.90;;;;;;5062179;28;20803;-82
2023/12/10 11:12:48;;;;;;;13.23;3.90;;;9.70;99.90;;;;;;5027874;28;20470;-82
2023/12/10 11:15:16;;;;;;;6.30;3.80;;;9.70;99.90;;;;;;5028095;28;20446;-83
2023/12/10 11:17:57;;;;;;;11.80;3.67;;;9.70;99.90;;;;;;5060902;28;20445;-82
2023/12/10 11:20:38;;;;;;;9.53;3.50;;;9.70;99.90;;;;;;5009945;28;20192;-82
2023/12/10 11:23:06;;;;;;;12.03;3.60;;;9.80;99.90;;;;;;5054041;28;20462;-84
2023/12/10 11:25:32;;;;;;;10.07;3.80;;;9.80;99.90;;;;;;5020654;28;20423;-82
2023/12/10 11:28:08;;;;;;;7.20;3.37;;;9.80;99.90;;;;;;5031698;28;20431;-83
2023/12/10 11:30:34;;;;;;;13.13;3.57;;;9.80;99.90;;;;;;5055201;28;20821;-83
2023/12/10 11:33:03;;;;;;;21.57;3.97;;;9.80;99.90;;;;;;5014155;28;20481;-82
2023/12/10 11:35:34;;;;;;;14.83;4.27;;;9.80;99.90;;;;;;5035671;28;20562;-83
2023/12/10 11:38:04;;;;;;;14.23;3.77;;;9.80;99.90;;;;;;5014422;28;20497;-82
2023/12/10 11:40:31;;;;;;;13.57;3.53;;;9.80;99.90;;;;;;5043553;28;20449;-82
2023/12/10 11:43:04;;;;;;;14.97;4.27;;;9.80;99.90;;;;;;5047760;28;20442;-81
2023/12/10 11:45:30;;;;;;;13.80;4.97;;;9.90;99.90;;;;;;5025499;28;20423;-82
2023/12/10 11:48:03;;;;;;;14.67;4.40;;;9.90;99.90;;;;;;5054899;28;20489;-81
2023/12/10 11:50:34;;;;;;;19.10;3.40;;;9.90;99.90;;;;;;5018893;28;20485;-82
2023/12/10 11:53:00;;;;;;;12.43;4.10;;;9.90;99.90;;;;;;5048385;28;20466;-84
2023/12/10 11:55:27;;;;;;;11.57;3.93;;;9.90;99.90;;;;;;5054355;28;20423;-82
2023/12/10 11:57:56;;;;;;;8.53;3.37;;;9.90;99.90;;;;;;5054797;28;20435;-84
2023/12/10 12:00:24;;;;;;;10.40;4.20;;;9.90;99.90;;;;;;5047114;28;20450;-82
2023/12/10 12:02:52;;;;;;;15.60;4.80;;;9.90;99.90;;;;;;5037679;28;20537;-85
2023/12/10 12:05:25;;;;;;;10.17;3.70;;;9.90;99.90;;;;;;5047004;28;20461;-83
2023/12/10 12:07:54;;;;;;;14.00;3.67;;;9.90;99.90;;;;;;5060493;28;20430;-83
2023/12/10 12:10:22;;;;;;;12.10;4.37;;;9.90;99.90;;;;;;5063279;28;20437;-82
2023/12/10 12:12:51;;;;;;;14.57;3.90;;;9.90;99.90;;;;;;5030011;28;20812;-83
2023/12/10 12:15:17;;;;;;;13.70;3.43;;;9.90;99.90;;;;;;5019951;28;20459;-83
2023/12/10 12:17:46;;;;;;;10.93;4.30;;;9.90;99.90;;;;;;5060922;28;20453;-83
2023/12/10 12:20:25;;;;;;;18.80;3.93;;;9.90;99.90;;;;;;5062779;28;20406;-83
2023/12/10 12:22:52;;;;;;;15.20;4.20;;;10.00;99.90;;;;;;5030425;28;20471;-81
2023/12/10 12:25:24;;;;;;;12.27;4.10;;;10.00;99.90;;;;;;5037842;28;20442;-84
2023/12/10 12:27:52;;;;;;;13.13;4.87;;;10.00;99.90;;;;;;5018334;28;20495;-83
2023/12/10 12:30:18;;;;;;;11.50;4.13;;;10.00;99.90;;;;;;5048006;28;21021;-82
2023/12/10 12:32:47;;;;;;;10.63;3.80;;;10.00;99.90;;;;;;5047557;28;20455;-83
2023/12/10 12:35:13;;;;;;;8.77;4.30;;;10.00;99.90;;;;;;5030486;28;21579;-83
2023/12/10 12:37:43;;;;;;;13.07;3.50;;;10.00;99.90;;;;;;5032496;28;20411;-82
2023/12/10 12:40:13;;;;;;;14.13;4.10;;;10.00;99.90;;;;;;5048613;28;20453;-82
2023/12/10 12:42:41;;;;;;;13.23;4.83;;;10.00;99.90;;;;;;5053473;28;20418;-84
2023/12/10 12:45:07;;;;;;;16.33;4.50;;;10.00;99.90;;;;;;5047651;28;20472;-84
2023/12/10 12:47:36;;;;;;;10.40;4.17;;;10.00;99.90;;;;;;5030084;28;20427;-83
2023/12/10 12:50:04;;;;;;;12.23;3.90;;;10.00;99.90;;;;;;5047724;28;20847;-83
2023/12/10 12:52:32;;;;;;;15.10;4.30;;;10.00;99.90;;;;;;5028086;28;20802;-83
2023/12/10 12:55:02;;;;;;;12.63;3.93;;;10.00;99.90;;;;;;5046319;28;20522;-82